createdAt,value
2023-02-22T00:02:27.262Z,4.62
2023-02-22T00:04:55.568Z,4.55
2023-02-22T00:07:24.058Z,4.54
2023-02-22T00:09:52.665Z,4.54
2023-02-22T00:12:21.366Z,4.53
2023-02-22T00:14:51.599Z,4.53
2023-02-22T00:17:20.858Z,4.54
2023-02-22T00:19:50.853Z,4.54
2023-02-22T00:22:19.850Z,4.53
2023-02-22T00:25:07.122Z,4.53
2023-02-22T00:27:36.123Z,4.55
2023-02-22T00:30:07.602Z,4.55
2023-02-22T00:32:39.621Z,4.56
2023-02-22T00:35:09.763Z,4.52
2023-02-22T00:37:42.113Z,4.51
2023-02-22T00:40:11.845Z,4.50
2023-02-22T00:42:40.189Z,4.51
2023-02-22T00:45:09.387Z,4.54
2023-02-22T00:47:37.882Z,4.54
2023-02-22T00:50:06.572Z,4.53
2023-02-22T00:52:36.380Z,4.53
2023-02-22T00:55:07.835Z,4.55
2023-02-22T00:57:37.007Z,4.53
2023-02-22T01:00:12.341Z,4.53
2023-02-22T01:02:42.465Z,4.57
2023-02-22T01:05:16.543Z,4.62
2023-02-22T01:07:46.470Z,4.66
2023-02-22T01:10:19.652Z,4.67
2023-02-22T01:12:50.252Z,4.65
2023-02-22T01:15:23.603Z,4.61
2023-02-22T01:17:53.885Z,4.60
2023-02-22T01:20:29.513Z,4.60
2023-02-22T01:22:58.991Z,4.57
2023-02-22T01:25:29.191Z,4.54
2023-02-22T01:27:58.814Z,4.51
2023-02-22T01:30:30.490Z,4.48
2023-02-22T01:32:59.043Z,4.45
2023-02-22T01:35:29.705Z,4.41
2023-02-22T01:37:58.565Z,4.42
2023-02-22T01:40:38.248Z,4.45
2023-02-22T01:43:30.018Z,4.47
2023-02-22T01:46:01.617Z,4.50
2023-02-22T01:48:49.770Z,4.51
2023-02-22T01:51:20.545Z,4.54
2023-02-22T01:54:09.820Z,4.56
2023-02-22T01:56:38.986Z,4.58
2023-02-22T01:59:10.182Z,4.59
2023-02-22T02:01:43.293Z,4.59
2023-02-22T02:04:18.423Z,4.57
2023-02-22T02:06:49.182Z,4.55
2023-02-22T02:09:55.879Z,4.54
2023-02-22T02:12:25.237Z,4.54
2023-02-22T02:14:54.276Z,4.57
2023-02-22T02:17:22.933Z,4.58
2023-02-22T02:20:13.576Z,4.57
2023-02-22T02:22:46.567Z,4.59
2023-02-22T02:25:33.899Z,4.63
2023-02-22T02:28:10.388Z,4.65
2023-02-22T02:31:21.352Z,4.65
2023-02-22T02:34:47.069Z,4.63
2023-02-22T02:37:33.485Z,4.63
2023-02-22T02:40:14.315Z,4.66
2023-02-22T02:42:54.973Z,4.71
2023-02-22T02:45:35.290Z,4.74
2023-02-22T02:48:03.963Z,4.75
2023-02-22T02:50:38.282Z,4.76
2023-02-22T02:53:08.395Z,4.78
2023-02-22T02:55:37.436Z,4.81
2023-02-22T02:58:06.656Z,4.82
2023-02-22T03:00:40.818Z,4.84
2023-02-22T03:03:37.748Z,4.84
2023-02-22T03:06:37.090Z,4.82
2023-02-22T03:09:35.814Z,4.77
2023-02-22T03:12:32.721Z,4.76
2023-02-22T03:15:44.066Z,4.76
2023-02-22T03:18:18.116Z,4.75
2023-02-22T03:21:18.698Z,4.73
2023-02-22T03:23:59.476Z,4.71
2023-02-22T03:27:04.506Z,4.70
2023-02-22T03:29:35.936Z,4.68
2023-02-22T03:32:07.414Z,4.68
2023-02-22T03:34:44.325Z,4.68
2023-02-22T03:37:22.281Z,4.67
2023-02-22T03:39:52.997Z,4.65
2023-02-22T03:42:24.227Z,4.65
2023-02-22T03:44:54.024Z,4.66
2023-02-22T03:47:40.359Z,4.68
2023-02-22T03:50:10.560Z,4.66
2023-02-22T03:52:39.260Z,4.62
2023-02-22T03:55:12.172Z,4.59
2023-02-22T03:57:42.469Z,4.58
2023-02-22T04:00:12.498Z,4.58
2023-02-22T04:02:45.407Z,4.60
2023-02-22T04:05:17.439Z,4.61
2023-02-22T04:07:46.326Z,4.58
2023-02-22T04:10:16.441Z,4.55
2023-02-22T04:12:46.254Z,4.53
2023-02-22T04:15:21.429Z,4.51
2023-02-22T04:17:52.637Z,4.47
2023-02-22T04:20:25.801Z,4.45
2023-02-22T04:23:00.558Z,4.43
2023-02-22T04:25:30.598Z,4.40
2023-02-22T04:27:59.556Z,4.38
2023-02-22T04:30:46.270Z,4.35
2023-02-22T04:33:17.423Z,4.32
2023-02-22T04:35:46.205Z,4.31
2023-02-22T04:38:15.548Z,4.29
2023-02-22T04:40:44.058Z,4.25
2023-02-22T04:43:15.474Z,4.21
2023-02-22T04:45:44.872Z,4.19
2023-02-22T04:48:13.601Z,4.16
2023-02-22T04:50:44.025Z,4.12
2023-02-22T04:53:12.920Z,4.09
2023-02-22T04:55:41.377Z,4.08
2023-02-22T04:58:10.111Z,4.08
2023-02-22T05:00:41.355Z,4.09
2023-02-22T05:03:09.762Z,4.10
2023-02-22T05:05:38.442Z,4.12
2023-02-22T05:08:06.843Z,4.14
2023-02-22T05:10:38.588Z,4.15
2023-02-22T05:13:07.326Z,4.15
2023-02-22T05:15:35.920Z,4.14
2023-02-22T05:18:05.214Z,4.15
2023-02-22T05:20:34.939Z,4.17
2023-02-22T05:23:03.508Z,4.21
2023-02-22T05:25:34.772Z,4.25
2023-02-22T05:28:05.440Z,4.31
2023-02-22T05:30:35.572Z,4.35
2023-02-22T05:33:03.983Z,4.39
2023-02-22T05:35:32.801Z,4.43
2023-02-22T05:38:03.400Z,4.46
2023-02-22T05:40:33.340Z,4.52
2023-02-22T05:43:02.985Z,4.57
2023-02-22T05:45:32.470Z,4.59
2023-02-22T05:48:01.382Z,4.61
2023-02-22T05:50:30.755Z,4.61
2023-02-22T05:52:59.442Z,4.58
2023-02-22T05:55:27.810Z,4.55
2023-02-22T05:57:56.188Z,4.55
2023-02-22T06:00:27.027Z,4.60
2023-02-22T06:02:56.655Z,4.64
2023-02-22T06:05:25.773Z,4.68
2023-02-22T06:07:54.334Z,4.71
2023-02-22T06:10:22.750Z,4.77
2023-02-22T06:12:51.245Z,4.86
2023-02-22T06:15:21.610Z,4.97
2023-02-22T06:17:50.019Z,5.05
2023-02-22T06:20:21.500Z,5.11
2023-02-22T06:22:54.401Z,5.16
2023-02-22T06:25:26.080Z,5.19
2023-02-22T06:27:54.625Z,5.22
2023-02-22T06:30:24.135Z,5.25
2023-02-22T06:32:52.528Z,5.30
2023-02-22T06:35:22.008Z,5.33
2023-02-22T06:37:50.302Z,5.33
2023-02-22T06:40:19.291Z,5.30
2023-02-22T06:42:50.138Z,5.27
2023-02-22T06:45:19.807Z,5.28
2023-02-22T06:47:49.877Z,5.32
2023-02-22T06:50:29.552Z,5.39
2023-02-22T06:52:58.476Z,5.45
2023-02-22T06:55:31.916Z,5.53
2023-02-22T06:58:01.121Z,5.60
2023-02-22T07:00:30.858Z,5.66
2023-02-22T07:02:59.507Z,5.73
2023-02-22T07:05:31.775Z,5.78
2023-02-22T07:08:07.197Z,5.84
2023-02-22T07:10:38.152Z,5.90
2023-02-22T07:13:09.618Z,5.93
2023-02-22T07:15:39.648Z,5.97
2023-02-22T07:18:08.353Z,6.00
2023-02-22T07:20:39.438Z,6.02
2023-02-22T07:23:09.446Z,6.04
2023-02-22T07:25:37.826Z,6.04
2023-02-22T07:28:07.203Z,6.06
2023-02-22T07:30:39.358Z,6.09
2023-02-22T07:33:09.081Z,6.16
2023-02-22T07:35:48.120Z,6.21
2023-02-22T07:38:22.037Z,6.18
2023-02-22T07:40:50.892Z,6.17
2023-02-22T07:43:27.182Z,6.19
2023-02-22T07:45:57.187Z,6.21
2023-02-22T07:48:28.816Z,6.20
2023-02-22T07:50:58.185Z,6.22
2023-02-22T07:53:30.472Z,6.27
2023-02-22T07:56:01.037Z,6.35
2023-02-22T07:58:32.079Z,6.43
2023-02-22T08:01:04.525Z,6.51
2023-02-22T08:03:37.018Z,6.60
2023-02-22T08:06:07.523Z,6.66
2023-02-22T08:08:36.968Z,6.69
2023-02-22T08:11:06.172Z,6.72
2023-02-22T08:13:37.710Z,6.74
2023-02-22T08:16:06.679Z,6.73
2023-02-22T08:18:38.476Z,6.76
2023-02-22T08:21:08.065Z,6.78
2023-02-22T08:23:39.198Z,6.82
2023-02-22T08:26:09.629Z,6.88
2023-02-22T08:28:39.827Z,6.93
2023-02-22T08:31:10.173Z,7.02
2023-02-22T08:33:38.826Z,7.16
2023-02-22T08:36:08.596Z,7.29
2023-02-22T08:38:39.058Z,7.40
2023-02-22T08:41:08.609Z,7.48
2023-02-22T08:43:37.854Z,7.54
2023-02-22T08:46:06.879Z,7.57
2023-02-22T08:48:36.765Z,7.53
2023-02-22T08:51:05.697Z,7.47
2023-02-22T08:53:35.203Z,7.48
2023-02-22T08:56:04.193Z,7.49
2023-02-22T08:58:32.694Z,7.47
2023-02-22T09:01:01.781Z,7.46
2023-02-22T09:03:30.274Z,7.43
2023-02-22T09:05:59.840Z,7.40
2023-02-22T09:08:31.713Z,7.40
2023-02-22T09:11:00.476Z,7.44
2023-02-22T09:13:28.827Z,7.46
2023-02-22T09:15:57.246Z,7.45
2023-02-22T09:18:30.554Z,7.45
2023-02-22T09:21:06.175Z,7.50
2023-02-22T09:23:35.251Z,7.57
2023-02-22T09:26:08.114Z,7.66
2023-02-22T09:28:36.974Z,7.70
2023-02-22T09:31:05.794Z,7.78
2023-02-22T09:33:35.750Z,7.93
2023-02-22T09:36:07.084Z,8.11
2023-02-22T09:38:36.580Z,8.21
2023-02-22T09:41:14.856Z,8.26
2023-02-22T09:44:16.873Z,8.32
2023-02-22T09:46:46.180Z,8.47
2023-02-22T09:49:31.466Z,8.52
2023-02-22T09:52:05.373Z,8.50
2023-02-22T09:54:38.566Z,8.47
2023-02-22T09:57:40.902Z,8.45
2023-02-22T10:00:18.495Z,8.42
2023-02-22T10:02:47.318Z,8.45
2023-02-22T10:05:28.468Z,8.53
2023-02-22T10:08:06.180Z,8.61
2023-02-22T10:10:39.437Z,8.62
2023-02-22T10:13:14.322Z,8.61
2023-02-22T10:15:51.743Z,8.63
2023-02-22T10:19:08.218Z,8.72
2023-02-22T10:22:14.195Z,8.84
2023-02-22T10:24:57.894Z,8.93
2023-02-22T10:27:49.502Z,8.99
2023-02-22T10:30:25.440Z,9.05
2023-02-22T10:33:17.856Z,9.10
2023-02-22T10:35:47.155Z,9.14
2023-02-22T10:38:32.594Z,9.19
2023-02-22T10:41:04.236Z,9.24
2023-02-22T10:43:33.577Z,9.27
2023-02-22T10:46:05.143Z,9.30
2023-02-22T10:48:37.480Z,9.29
2023-02-22T10:51:08.729Z,9.27
2023-02-22T10:53:38.675Z,9.27
2023-02-22T10:56:13.268Z,9.26
2023-02-22T10:59:03.109Z,9.26
2023-02-22T11:01:32.050Z,9.25
2023-02-22T11:04:05.574Z,9.25
2023-02-22T11:06:35.013Z,9.23
2023-02-22T11:09:11.110Z,9.18
2023-02-22T11:11:43.641Z,9.11
2023-02-22T11:14:13.927Z,9.05
2023-02-22T11:16:47.827Z,8.99
2023-02-22T11:19:16.693Z,8.95
2023-02-22T11:21:45.383Z,8.98
2023-02-22T11:24:14.586Z,9.05
2023-02-22T11:26:44.898Z,9.12
2023-02-22T11:29:27.776Z,9.12
2023-02-22T11:31:56.246Z,9.10
2023-02-22T11:34:27.861Z,9.06
2023-02-22T11:36:56.810Z,9.03
2023-02-22T11:39:35.799Z,9.00
2023-02-22T11:42:25.092Z,8.95
2023-02-22T11:45:13.218Z,8.90
2023-02-22T11:47:55.720Z,8.92
2023-02-22T11:50:40.749Z,8.95
2023-02-22T11:53:22.897Z,9.03
2023-02-22T11:56:16.131Z,9.10
2023-02-22T11:59:29.529Z,9.18
2023-02-22T12:02:27.516Z,9.19
2023-02-22T12:05:08.386Z,9.14
2023-02-22T12:07:59.049Z,9.15
2023-02-22T12:10:43.650Z,9.20
2023-02-22T12:13:55.974Z,9.26
2023-02-22T12:16:31.973Z,9.25
2023-02-22T12:19:15.409Z,9.21
2023-02-22T12:21:45.371Z,9.16
2023-02-22T12:24:28.017Z,9.18
2023-02-22T12:27:00.367Z,9.15
2023-02-22T12:29:37.787Z,9.08
2023-02-22T12:32:18.679Z,8.99
2023-02-22T12:34:49.180Z,8.91
2023-02-22T12:37:30.014Z,8.80
2023-02-22T12:40:09.621Z,8.73
2023-02-22T12:42:48.635Z,8.66
2023-02-22T12:45:58.347Z,8.61
2023-02-22T12:48:36.242Z,8.61
2023-02-22T12:51:43.302Z,8.62
2023-02-22T12:54:18.926Z,8.70
2023-02-22T12:56:57.918Z,8.78
2023-02-22T12:59:30.819Z,8.84
2023-02-22T13:02:03.462Z,8.89
2023-02-22T13:04:34.902Z,9.01
2023-02-22T13:07:16.451Z,9.17
2023-02-22T13:09:51.372Z,9.32
2023-02-22T13:12:46.008Z,9.42
2023-02-22T13:15:20.334Z,9.40
2023-02-22T13:18:01.575Z,9.38
2023-02-22T13:20:43.097Z,9.41
2023-02-22T13:23:12.793Z,9.45
2023-02-22T13:25:57.781Z,9.50
2023-02-22T13:28:57.749Z,9.60
2023-02-22T13:31:30.755Z,9.73
2023-02-22T13:34:18.134Z,9.75
2023-02-22T13:36:49.484Z,9.77
2023-02-22T13:39:54.952Z,9.78
2023-02-22T13:42:35.638Z,9.77
2023-02-22T13:45:29.926Z,9.69
2023-02-22T13:48:04.523Z,9.51
2023-02-22T13:50:50.774Z,9.32
2023-02-22T13:53:23.789Z,9.23
2023-02-22T13:55:55.410Z,9.21
2023-02-22T13:58:24.302Z,9.18
2023-02-22T14:00:57.540Z,9.16
2023-02-22T14:03:34.513Z,9.12
2023-02-22T14:06:07.284Z,9.05
2023-02-22T14:08:36.194Z,8.94
2023-02-22T14:11:28.333Z,8.83
2023-02-22T14:14:01.207Z,8.75
2023-02-22T14:16:30.800Z,8.69
2023-02-22T14:19:06.672Z,8.60
2023-02-22T14:21:35.979Z,8.53
2023-02-22T14:24:09.606Z,8.45
2023-02-22T14:26:39.736Z,8.39
2023-02-22T14:29:17.022Z,8.35
2023-02-22T14:31:50.284Z,8.30
2023-02-22T14:34:22.438Z,8.25
2023-02-22T14:37:05.398Z,8.16
2023-02-22T14:39:44.479Z,8.06
2023-02-22T14:42:13.387Z,7.92
2023-02-22T14:44:53.991Z,7.80
2023-02-22T14:47:39.994Z,7.69
2023-02-22T14:50:27.481Z,7.63
2023-02-22T14:53:07.904Z,7.61
2023-02-22T14:55:48.084Z,7.61
2023-02-22T14:58:19.292Z,7.60
2023-02-22T15:00:50.035Z,7.58
2023-02-22T15:03:38.644Z,7.53
2023-02-22T15:06:20.147Z,7.49
2023-02-22T15:09:07.360Z,7.44
2023-02-22T15:11:36.300Z,7.38
2023-02-22T15:14:25.118Z,7.33
2023-02-22T15:17:00.695Z,7.28
2023-02-22T15:19:31.453Z,7.24
2023-02-22T15:22:00.353Z,7.21
2023-02-22T15:24:34.010Z,7.18
2023-02-22T15:27:06.381Z,7.15
2023-02-22T15:29:44.702Z,7.10
2023-02-22T15:32:34.324Z,7.06
2023-02-22T15:35:14.870Z,7.04
2023-02-22T15:37:47.004Z,7.01
2023-02-22T15:40:17.875Z,6.96
2023-02-22T15:42:53.283Z,6.91
2023-02-22T15:45:22.611Z,6.84
2023-02-22T15:47:54.562Z,6.76
2023-02-22T15:50:34.052Z,6.69
2023-02-22T15:53:27.383Z,6.64
2023-02-22T15:56:01.241Z,6.62
2023-02-22T15:58:32.298Z,6.61
2023-02-22T16:01:14.480Z,6.60
2023-02-22T16:03:45.954Z,6.60
2023-02-22T16:06:28.787Z,6.60
2023-02-22T16:08:59.269Z,6.58
2023-02-22T16:11:35.295Z,6.47
2023-02-22T16:14:07.306Z,6.32
2023-02-22T16:16:37.165Z,6.20
2023-02-22T16:19:27.425Z,6.07
2023-02-22T16:22:13.510Z,5.96
2023-02-22T16:24:42.548Z,5.88
2023-02-22T16:27:16.577Z,5.82
2023-02-22T16:30:29.295Z,5.82
2023-02-22T16:32:58.399Z,5.84
2023-02-22T16:35:29.054Z,5.83
2023-02-22T16:38:02.731Z,5.84
2023-02-22T16:40:34.639Z,5.82
2023-02-22T16:43:13.091Z,5.80
2023-02-22T16:45:42.744Z,5.80
2023-02-22T16:48:18.827Z,5.78
2023-02-22T16:50:50.247Z,5.74
2023-02-22T16:53:22.974Z,5.70
2023-02-22T16:55:57.836Z,5.66
2023-02-22T16:58:28.074Z,5.60
2023-02-22T17:00:57.724Z,5.58
2023-02-22T17:03:26.389Z,5.60
2023-02-22T17:05:55.106Z,5.61
2023-02-22T17:08:24.774Z,5.62
2023-02-22T17:10:56.881Z,5.61
2023-02-22T17:13:27.226Z,5.61
2023-02-22T17:15:56.731Z,5.61
2023-02-22T17:18:28.935Z,5.61
2023-02-22T17:20:57.717Z,5.61
2023-02-22T17:23:27.817Z,5.61
2023-02-22T17:25:57.293Z,5.61
2023-02-22T17:28:26.166Z,5.59
2023-02-22T17:30:59.546Z,5.56
2023-02-22T17:33:33.311Z,5.51
2023-02-22T17:36:08.715Z,5.45
2023-02-22T17:38:41.817Z,5.41
2023-02-22T17:41:13.506Z,5.39
2023-02-22T17:43:43.145Z,5.38
2023-02-22T17:46:12.501Z,5.39
2023-02-22T17:48:41.386Z,5.39
2023-02-22T17:51:11.017Z,5.39
2023-02-22T17:53:40.160Z,5.38
2023-02-22T17:56:10.700Z,5.37
2023-02-22T17:58:40.867Z,5.34
2023-02-22T18:01:44.194Z,5.30
2023-02-22T18:04:13.368Z,5.25
2023-02-22T18:06:44.847Z,5.19
2023-02-22T18:09:17.925Z,5.13
2023-02-22T18:11:46.341Z,5.09
2023-02-22T18:14:14.981Z,5.06
2023-02-22T18:16:47.004Z,5.03
2023-02-22T18:19:20.992Z,4.97
2023-02-22T18:21:53.496Z,4.93
2023-02-22T18:24:24.436Z,4.90
2023-02-22T18:26:53.737Z,4.87
2023-02-22T18:29:22.843Z,4.84
2023-02-22T18:31:53.247Z,4.83
2023-02-22T18:34:25.154Z,4.80
2023-02-22T18:36:53.516Z,4.78
2023-02-22T18:39:23.186Z,4.76
2023-02-22T18:41:52.613Z,4.74
2023-02-22T18:44:22.627Z,4.73
2023-02-22T18:46:51.352Z,4.71
2023-02-22T18:49:19.878Z,4.70
2023-02-22T18:51:48.836Z,4.69
2023-02-22T18:54:19.937Z,4.68
2023-02-22T18:56:48.486Z,4.64
2023-02-22T18:59:17.021Z,4.59
2023-02-22T19:01:49.267Z,4.57
2023-02-22T19:04:18.883Z,4.52
2023-02-22T19:06:48.624Z,4.48
2023-02-22T19:09:17.768Z,4.44
2023-02-22T19:11:48.509Z,4.41
2023-02-22T19:14:17.747Z,4.36
2023-02-22T19:16:46.638Z,4.32
2023-02-22T19:19:20.831Z,4.31
2023-02-22T19:21:49.574Z,4.30
2023-02-22T19:24:19.088Z,4.29
2023-02-22T19:26:50.864Z,4.29
2023-02-22T19:29:25.069Z,4.29
2023-02-22T19:31:54.039Z,4.28
2023-02-22T19:34:24.858Z,4.25
2023-02-22T19:36:53.350Z,4.21
2023-02-22T19:41:58.342Z,4.13
2023-02-22T19:44:27.407Z,4.14
2023-02-22T19:47:00.319Z,4.15
2023-02-22T19:49:30.046Z,4.14
2023-02-22T19:51:58.864Z,4.10
2023-02-22T19:54:27.760Z,4.06
2023-02-22T19:56:58.196Z,4.02
2023-02-22T19:59:27.071Z,3.98
2023-02-22T20:01:56.185Z,3.95
2023-02-22T20:04:30.743Z,3.93
2023-02-22T20:07:00.298Z,3.93
2023-02-22T20:09:48.230Z,3.92
2023-02-22T20:12:16.589Z,3.92
2023-02-22T20:14:46.662Z,3.94
2023-02-22T20:17:15.687Z,3.98
2023-02-22T20:19:44.796Z,4.04
2023-02-22T20:22:13.618Z,4.08
2023-02-22T20:24:43.120Z,4.12
2023-02-22T20:27:13.142Z,4.16
2023-02-22T20:29:41.578Z,4.19
2023-02-22T20:32:12.183Z,4.20
2023-02-22T20:34:44.822Z,4.20
2023-02-22T20:37:14.617Z,4.21
2023-02-22T20:39:44.961Z,4.21
2023-02-22T20:42:15.744Z,4.19
2023-02-22T20:44:45.466Z,4.17
2023-02-22T20:47:14.211Z,4.16
2023-02-22T20:49:44.520Z,4.14
2023-02-22T20:52:16.378Z,4.11
2023-02-22T20:54:46.049Z,4.08
2023-02-22T20:57:14.963Z,4.05
2023-02-22T20:59:44.563Z,4.01
2023-02-22T21:02:13.202Z,3.97
2023-02-22T21:04:41.873Z,3.96
2023-02-22T21:07:10.174Z,3.96
2023-02-22T21:09:40.571Z,3.97
2023-02-22T21:12:13.769Z,3.95
2023-02-22T21:14:44.400Z,3.91
2023-02-22T21:17:13.129Z,3.84
2023-02-22T21:19:42.431Z,3.77
2023-02-22T21:22:12.530Z,3.73
2023-02-22T21:24:42.004Z,3.69
2023-02-22T21:27:12.413Z,3.67
2023-02-22T21:29:41.088Z,3.65
2023-02-22T21:32:10.529Z,3.64
2023-02-22T21:34:39.194Z,3.64
2023-02-22T21:37:08.501Z,3.61
2023-02-22T21:39:40.652Z,3.59
2023-02-22T21:42:09.171Z,3.59
2023-02-22T21:44:37.931Z,3.57
2023-02-22T21:47:08.029Z,3.56
2023-02-22T21:49:38.358Z,3.56
2023-02-22T21:52:08.008Z,3.58
2023-02-22T21:54:37.741Z,3.57
2023-02-22T21:57:07.013Z,3.52
2023-02-22T21:59:35.421Z,3.49
2023-02-22T22:02:04.317Z,3.44
2023-02-22T22:04:35.140Z,3.41
2023-02-22T22:07:05.327Z,3.40
2023-02-22T22:09:37.587Z,3.43
2023-02-22T22:12:10.817Z,3.46
2023-02-22T22:14:42.264Z,3.44
2023-02-22T22:17:13.022Z,3.40
2023-02-22T22:19:44.626Z,3.41
2023-02-22T22:22:13.305Z,3.43
2023-02-22T22:24:45.974Z,3.42
2023-02-22T22:27:15.273Z,3.43
2023-02-22T22:29:43.769Z,3.43
2023-02-22T22:32:13.925Z,3.43
2023-02-22T22:34:44.031Z,3.43
2023-02-22T22:37:13.400Z,3.40
2023-02-22T22:39:42.732Z,3.37
2023-02-22T22:42:11.417Z,3.35
2023-02-22T22:44:42.702Z,3.39
2023-02-22T22:47:14.447Z,3.41
2023-02-22T22:49:43.022Z,3.40
2023-02-22T22:52:14.142Z,3.36
2023-02-22T22:54:47.465Z,3.32
2023-02-22T22:57:15.783Z,3.29
2023-02-22T22:59:44.026Z,3.27
2023-02-22T23:02:12.838Z,3.24
2023-02-22T23:04:41.309Z,3.20
2023-02-22T23:07:11.415Z,3.16
2023-02-22T23:09:41.744Z,3.14
2023-02-22T23:12:18.056Z,3.13
2023-02-22T23:14:52.237Z,3.13
2023-02-22T23:17:43.942Z,3.17
2023-02-22T23:20:13.167Z,3.22
2023-02-22T23:22:47.389Z,3.27
2023-02-22T23:25:19.850Z,3.30
2023-02-22T23:27:49.617Z,3.32
2023-02-22T23:30:22.527Z,3.33
2023-02-22T23:32:53.357Z,3.34
2023-02-22T23:35:21.584Z,3.34
2023-02-22T23:37:53.142Z,3.32
2023-02-22T23:40:21.768Z,3.28
2023-02-22T23:42:51.531Z,3.24
2023-02-22T23:45:23.628Z,3.22
2023-02-22T23:47:55.248Z,3.18
2023-02-22T23:50:26.991Z,3.14
2023-02-22T23:52:59.782Z,3.13
2023-02-22T23:55:31.722Z,3.12
2023-02-22T23:58:00.112Z,3.11
